Inicio METAR Ruta Wind Satelite

Informe Meteorológico

Fecha: 2020/07/02 01:29:39 Local
2020.07.02 06:29 UTC


Estado: VIGENTE
Operación:VFR
San Andres Isla / Sesquicentenario, Colombia (SKSP) 12-35N 081-43W 6M
2020.07.02 0600 UTC
Wind: from the ENE (070 degrees) at 7 MPH (6 KT) (direction variable):0
Visibility: greater than 7 mile(s):0
Sky conditions: overcast
Temperature: 82 F (28 C)
Dew Point: 77 F (25 C)
Relative Humidity: 83%
Pressure (altimeter): 29.87 in. Hg (1011 hPa)
ob: SKSP 020600Z 07006KT 030V090 9999 FEW015 OVC080 28/25 A2987 REDZ
cycle: 6

SKSP 020500Z 05008KT 9999 -DZ SCT015 BKN080 27/25 A2988 RERA
SKSP 020400Z 06007KT 9999 FEW016 SCT080 BKN200 28/25 A2989
SKSP 020300Z 06008KT 030V090 9999 FEW016 BKN200 28/25 A2988
SKSP 020200Z 06010KT 030V090 9999 FEW016 BKN200 28/25 A2987
SKSP 020100Z 07006KT 030V100 9999 FEW017 SCT090 BKN200 29/25 A2985

2020/07/02 06:44
TAF SKSP 020430Z 0206/0306 06008KT 9999 SCT015 BKN080
TEMPO 0207/0211 7000 RADZ FEW015CB BKN080 PROB40
TEMPO 0215/0219 DZ TX31/0118Z TN27/0210Z